Terminal Aerodrome Forecast
Issued by NWS

Home | Current Version | Previous Version | Text Only | Print | Product List | Glossary On
Versions: 1 2 3 4 5 6 7 8 9 10 11 12 13 14 15 16
000
FTUS43 KGRB 281000 AAA
TAFMTW
TAF AMD
KMTW 281054Z 2811/2906 00000KT P6SM SCT022 BKN120
      TEMPO 2812/2816 4SM BR BKN022
     FM281600 17005KT 6SM BR SCT022 BKN100
     FM282100 15010KT P6SM SCT025 BKN060 WS018/19035KT
     FM290400 16011KT P6SM BKN020 OVC050 WS018/19030KT=

USA.gov is the U.S. government's official web portal to all federal, state and local government web resources and services.